sensor_id;sensor_type;location;lat;lon;timestamp;temperature;humidity
50989;DHT22;37008;52.210;21.112;2023-06-22T00:00:58;18.70;99.90
50989;DHT22;37008;52.210;21.112;2023-06-22T00:03:25;18.70;99.90
50989;DHT22;37008;52.210;21.112;2023-06-22T00:05:51;18.60;99.90
50989;DHT22;37008;52.210;21.112;2023-06-22T00:08:18;18.60;99.90
50989;DHT22;37008;52.210;21.112;2023-06-22T00:10:44;18.50;99.90
50989;DHT22;37008;52.210;21.112;2023-06-22T00:13:11;18.50;99.90
50989;DHT22;37008;52.210;21.112;2023-06-22T00:15:38;18.50;99.90
50989;DHT22;37008;52.210;21.112;2023-06-22T00:18:07;18.50;99.90
50989;DHT22;37008;52.210;21.112;2023-06-22T00:20:32;18.50;99.90
50989;DHT22;37008;52.210;21.112;2023-06-22T00:22:59;18.40;99.90
50989;DHT22;37008;52.210;21.112;2023-06-22T00:25:25;18.40;99.90
50989;DHT22;37008;52.210;21.112;2023-06-22T00:27:51;18.40;99.90
50989;DHT22;37008;52.210;21.112;2023-06-22T00:30:17;18.30;99.90
50989;DHT22;37008;52.210;21.112;2023-06-22T00:32:44;18.30;99.90
50989;DHT22;37008;52.210;21.112;2023-06-22T00:35:11;18.30;99.90
50989;DHT22;37008;52.210;21.112;2023-06-22T00:37:38;18.20;99.90
50989;DHT22;37008;52.210;21.112;2023-06-22T00:40:09;18.30;99.90
50989;DHT22;37008;52.210;21.112;2023-06-22T00:42:40;18.30;99.90
50989;DHT22;37008;52.210;21.112;2023-06-22T00:45:06;18.20;99.90
50989;DHT22;37008;52.210;21.112;2023-06-22T00:47:36;18.30;99.90
50989;DHT22;37008;52.210;21.112;2023-06-22T00:50:05;18.20;99.90
50989;DHT22;37008;52.210;21.112;2023-06-22T00:52:32;18.20;99.90
50989;DHT22;37008;52.210;21.112;2023-06-22T00:55:02;18.10;99.90
50989;DHT22;37008;52.210;21.112;2023-06-22T00:57:28;18.10;99.90
50989;DHT22;37008;52.210;21.112;2023-06-22T00:59:54;18.10;99.90
50989;DHT22;37008;52.210;21.112;2023-06-22T01:02:20;18.00;99.90
50989;DHT22;37008;52.210;21.112;2023-06-22T01:04:46;18.10;99.90
50989;DHT22;37008;52.210;21.112;2023-06-22T01:07:35;18.00;99.90
50989;DHT22;37008;52.210;21.112;2023-06-22T01:10:18;18.00;99.90
50989;DHT22;37008;52.210;21.112;2023-06-22T01:12:53;18.10;99.90
50989;DHT22;37008;52.210;21.112;2023-06-22T01:15:30;18.00;99.90
50989;DHT22;37008;52.210;21.112;2023-06-22T01:17:57;18.00;99.90
50989;DHT22;37008;52.210;21.112;2023-06-22T01:20:25;18.00;99.90
50989;DHT22;37008;52.210;21.112;2023-06-22T01:26:08;17.90;99.90
50989;DHT22;37008;52.210;21.112;2023-06-22T01:28:45;17.80;99.90
50989;DHT22;37008;52.210;21.112;2023-06-22T01:31:14;17.80;99.90
50989;DHT22;37008;52.210;21.112;2023-06-22T01:33:44;17.80;99.90
50989;DHT22;37008;52.210;21.112;2023-06-22T01:36:10;17.80;99.90
50989;DHT22;37008;52.210;21.112;2023-06-22T01:38:37;17.70;99.90
50989;DHT22;37008;52.210;21.112;2023-06-22T01:41:04;17.70;99.90
50989;DHT22;37008;52.210;21.112;2023-06-22T01:43:30;17.70;99.90
50989;DHT22;37008;52.210;21.112;2023-06-22T01:45:56;17.70;99.90
50989;DHT22;37008;52.210;21.112;2023-06-22T01:48:23;17.60;99.90
50989;DHT22;37008;52.210;21.112;2023-06-22T01:50:49;17.60;99.90
50989;DHT22;37008;52.210;21.112;2023-06-22T01:53:15;17.60;99.90
50989;DHT22;37008;52.210;21.112;2023-06-22T01:55:40;17.50;99.90
50989;DHT22;37008;52.210;21.112;2023-06-22T01:58:06;17.50;99.90
50989;DHT22;37008;52.210;21.112;2023-06-22T02:00:36;17.40;99.90
50989;DHT22;37008;52.210;21.112;2023-06-22T02:03:11;17.50;99.90
50989;DHT22;37008;52.210;21.112;2023-06-22T02:05:55;17.40;99.90
50989;DHT22;37008;52.210;21.112;2023-06-22T02:08:25;17.40;99.90
50989;DHT22;37008;52.210;21.112;2023-06-22T02:10:51;17.50;99.90
50989;DHT22;37008;52.210;21.112;2023-06-22T02:13:18;17.50;99.90
50989;DHT22;37008;52.210;21.112;2023-06-22T02:15:46;17.50;99.90
50989;DHT22;37008;52.210;21.112;2023-06-22T02:18:13;17.50;99.90
50989;DHT22;37008;52.210;21.112;2023-06-22T02:20:39;17.50;99.90
50989;DHT22;37008;52.210;21.112;2023-06-22T02:23:06;17.50;99.90
50989;DHT22;37008;52.210;21.112;2023-06-22T02:25:34;17.50;99.90
50989;DHT22;37008;52.210;21.112;2023-06-22T02:28:00;17.60;99.90
50989;DHT22;37008;52.210;21.112;2023-06-22T02:30:26;17.70;99.90
50989;DHT22;37008;52.210;21.112;2023-06-22T02:32:51;17.80;99.90
50989;DHT22;37008;52.210;21.112;2023-06-22T02:35:25;17.90;99.90
50989;DHT22;37008;52.210;21.112;2023-06-22T02:37:51;18.00;99.90
50989;DHT22;37008;52.210;21.112;2023-06-22T02:40:17;18.10;99.90
50989;DHT22;37008;52.210;21.112;2023-06-22T02:42:43;18.10;99.90
50989;DHT22;37008;52.210;21.112;2023-06-22T02:45:10;18.20;99.90
50989;DHT22;37008;52.210;21.112;2023-06-22T02:47:35;18.20;99.90
50989;DHT22;37008;52.210;21.112;2023-06-22T02:50:01;18.30;99.90
50989;DHT22;37008;52.210;21.112;2023-06-22T02:52:27;18.30;99.90
50989;DHT22;37008;52.210;21.112;2023-06-22T02:54:52;18.40;99.90
50989;DHT22;37008;52.210;21.112;2023-06-22T02:57:18;18.40;99.90
50989;DHT22;37008;52.210;21.112;2023-06-22T02:59:43;18.50;99.90
50989;DHT22;37008;52.210;21.112;2023-06-22T03:02:09;18.60;99.90
50989;DHT22;37008;52.210;21.112;2023-06-22T03:04:36;18.60;99.90
50989;DHT22;37008;52.210;21.112;2023-06-22T03:07:02;18.70;99.90
50989;DHT22;37008;52.210;21.112;2023-06-22T03:09:28;18.70;99.90
50989;DHT22;37008;52.210;21.112;2023-06-22T03:11:54;18.80;99.90
50989;DHT22;37008;52.210;21.112;2023-06-22T03:14:20;18.90;99.90
50989;DHT22;37008;52.210;21.112;2023-06-22T03:16:46;19.00;99.90
50989;DHT22;37008;52.210;21.112;2023-06-22T03:19:12;19.10;99.90
50989;DHT22;37008;52.210;21.112;2023-06-22T03:21:38;19.20;99.90
50989;DHT22;37008;52.210;21.112;2023-06-22T03:24:04;19.30;99.90
50989;DHT22;37008;52.210;21.112;2023-06-22T03:26:30;19.40;99.90
50989;DHT22;37008;52.210;21.112;2023-06-22T03:28:56;19.40;99.90
50989;DHT22;37008;52.210;21.112;2023-06-22T03:31:22;19.50;99.90
50989;DHT22;37008;52.210;21.112;2023-06-22T03:33:48;19.50;99.90
50989;DHT22;37008;52.210;21.112;2023-06-22T03:36:15;19.60;99.90
50989;DHT22;37008;52.210;21.112;2023-06-22T03:38:48;19.60;99.90
50989;DHT22;37008;52.210;21.112;2023-06-22T03:41:14;19.60;99.90
50989;DHT22;37008;52.210;21.112;2023-06-22T03:43:39;19.60;99.90
50989;DHT22;37008;52.210;21.112;2023-06-22T03:46:05;19.60;99.90
50989;DHT22;37008;52.210;21.112;2023-06-22T03:48:31;19.70;99.90
50989;DHT22;37008;52.210;21.112;2023-06-22T03:50:58;19.70;99.90
50989;DHT22;37008;52.210;21.112;2023-06-22T03:53:24;19.70;99.90
50989;DHT22;37008;52.210;21.112;2023-06-22T03:55:53;19.70;99.90
50989;DHT22;37008;52.210;21.112;2023-06-22T03:58:20;19.80;99.90
50989;DHT22;37008;52.210;21.112;2023-06-22T04:00:50;19.80;99.90
50989;DHT22;37008;52.210;21.112;2023-06-22T04:03:16;19.80;99.90
50989;DHT22;37008;52.210;21.112;2023-06-22T04:05:46;19.90;99.90
50989;DHT22;37008;52.210;21.112;2023-06-22T04:08:13;19.90;99.90
50989;DHT22;37008;52.210;21.112;2023-06-22T04:10:39;20.00;99.90
50989;DHT22;37008;52.210;21.112;2023-06-22T04:13:05;20.00;99.90
50989;DHT22;37008;52.210;21.112;2023-06-22T04:15:31;20.00;99.90
50989;DHT22;37008;52.210;21.112;2023-06-22T04:17:56;20.10;99.90
50989;DHT22;37008;52.210;21.112;2023-06-22T04:20:23;20.10;99.90
50989;DHT22;37008;52.210;21.112;2023-06-22T04:22:53;20.20;99.90
50989;DHT22;37008;52.210;21.112;2023-06-22T04:25:20;20.30;99.90
50989;DHT22;37008;52.210;21.112;2023-06-22T04:27:46;20.30;99.90
50989;DHT22;37008;52.210;21.112;2023-06-22T04:30:12;20.30;99.90
50989;DHT22;37008;52.210;21.112;2023-06-22T04:32:40;20.30;99.90
50989;DHT22;37008;52.210;21.112;2023-06-22T04:35:06;20.30;99.90
50989;DHT22;37008;52.210;21.112;2023-06-22T04:37:33;20.40;99.90
50989;DHT22;37008;52.210;21.112;2023-06-22T04:39:59;20.40;99.90
50989;DHT22;37008;52.210;21.112;2023-06-22T04:42:28;20.40;99.90
50989;DHT22;37008;52.210;21.112;2023-06-22T04:44:54;20.50;99.90
50989;DHT22;37008;52.210;21.112;2023-06-22T04:47:19;20.50;99.90
50989;DHT22;37008;52.210;21.112;2023-06-22T04:49:45;20.50;99.90
50989;DHT22;37008;52.210;21.112;2023-06-22T04:52:12;20.60;99.90
50989;DHT22;37008;52.210;21.112;2023-06-22T04:54:39;20.60;99.90
50989;DHT22;37008;52.210;21.112;2023-06-22T04:57:07;20.70;99.90
50989;DHT22;37008;52.210;21.112;2023-06-22T04:59:36;20.70;99.90
50989;DHT22;37008;52.210;21.112;2023-06-22T05:02:02;20.80;99.90
50989;DHT22;37008;52.210;21.112;2023-06-22T05:04:29;20.90;99.90
50989;DHT22;37008;52.210;21.112;2023-06-22T05:06:59;21.00;99.90
50989;DHT22;37008;52.210;21.112;2023-06-22T05:09:25;20.90;99.90
50989;DHT22;37008;52.210;21.112;2023-06-22T05:11:52;20.90;99.90
50989;DHT22;37008;52.210;21.112;2023-06-22T05:14:26;20.90;99.90
50989;DHT22;37008;52.210;21.112;2023-06-22T05:16:52;20.90;99.90
50989;DHT22;37008;52.210;21.112;2023-06-22T05:19:17;20.90;99.90
50989;DHT22;37008;52.210;21.112;2023-06-22T05:21:43;20.90;99.90
50989;DHT22;37008;52.210;21.112;2023-06-22T05:24:09;20.90;99.90
50989;DHT22;37008;52.210;21.112;2023-06-22T05:26:35;20.90;99.90
50989;DHT22;37008;52.210;21.112;2023-06-22T05:29:02;20.90;99.90
50989;DHT22;37008;52.210;21.112;2023-06-22T05:31:28;20.90;99.90
50989;DHT22;37008;52.210;21.112;2023-06-22T05:33:55;21.00;99.90
50989;DHT22;37008;52.210;21.112;2023-06-22T05:36:21;21.10;99.90
50989;DHT22;37008;52.210;21.112;2023-06-22T05:38:53;21.00;99.90
50989;DHT22;37008;52.210;21.112;2023-06-22T05:41:19;21.00;99.90
50989;DHT22;37008;52.210;21.112;2023-06-22T05:43:44;21.00;99.90
50989;DHT22;37008;52.210;21.112;2023-06-22T05:46:10;21.00;99.90
50989;DHT22;37008;52.210;21.112;2023-06-22T05:48:36;21.10;99.90
50989;DHT22;37008;52.210;21.112;2023-06-22T05:51:02;21.10;99.90
50989;DHT22;37008;52.210;21.112;2023-06-22T05:53:28;21.10;99.90
50989;DHT22;37008;52.210;21.112;2023-06-22T05:55:53;21.20;99.90
50989;DHT22;37008;52.210;21.112;2023-06-22T05:58:19;21.20;99.90
50989;DHT22;37008;52.210;21.112;2023-06-22T06:00:45;21.20;99.90
50989;DHT22;37008;52.210;21.112;2023-06-22T06:03:12;21.20;99.90
50989;DHT22;37008;52.210;21.112;2023-06-22T06:05:43;21.10;99.90
50989;DHT22;37008;52.210;21.112;2023-06-22T06:08:08;21.10;99.90
50989;DHT22;37008;52.210;21.112;2023-06-22T06:10:36;21.10;99.90
50989;DHT22;37008;52.210;21.112;2023-06-22T06:13:02;21.20;99.90
50989;DHT22;37008;52.210;21.112;2023-06-22T06:15:30;21.20;99.90
50989;DHT22;37008;52.210;21.112;2023-06-22T06:17:56;21.30;99.90
50989;DHT22;37008;52.210;21.112;2023-06-22T06:20:24;21.30;99.90
50989;DHT22;37008;52.210;21.112;2023-06-22T06:22:50;21.30;99.90
50989;DHT22;37008;52.210;21.112;2023-06-22T06:25:16;21.30;99.90
50989;DHT22;37008;52.210;21.112;2023-06-22T06:28:05;21.20;99.90
50989;DHT22;37008;52.210;21.112;2023-06-22T06:30:31;21.20;99.90
50989;DHT22;37008;52.210;21.112;2023-06-22T06:32:57;21.20;99.90
50989;DHT22;37008;52.210;21.112;2023-06-22T06:35:24;21.20;99.90
50989;DHT22;37008;52.210;21.112;2023-06-22T06:37:50;21.30;99.90
50989;DHT22;37008;52.210;21.112;2023-06-22T06:40:17;21.30;99.90
50989;DHT22;37008;52.210;21.112;2023-06-22T06:42:45;21.20;99.90
50989;DHT22;37008;52.210;21.112;2023-06-22T06:45:12;21.30;99.90
50989;DHT22;37008;52.210;21.112;2023-06-22T06:47:39;21.30;99.90
50989;DHT22;37008;52.210;21.112;2023-06-22T06:50:06;21.40;99.90
50989;DHT22;37008;52.210;21.112;2023-06-22T06:52:32;21.50;99.90
50989;DHT22;37008;52.210;21.112;2023-06-22T06:54:58;21.60;99.90
50989;DHT22;37008;52.210;21.112;2023-06-22T06:57:24;21.60;99.90
50989;DHT22;37008;52.210;21.112;2023-06-22T06:59:56;21.70;99.90
50989;DHT22;37008;52.210;21.112;2023-06-22T07:02:25;21.80;99.90
50989;DHT22;37008;52.210;21.112;2023-06-22T07:04:53;22.00;99.90
50989;DHT22;37008;52.210;21.112;2023-06-22T07:07:21;22.20;99.90
50989;DHT22;37008;52.210;21.112;2023-06-22T07:09:46;22.30;99.90
50989;DHT22;37008;52.210;21.112;2023-06-22T07:12:12;22.60;99.90
50989;DHT22;37008;52.210;21.112;2023-06-22T07:14:38;22.80;99.90
50989;DHT22;37008;52.210;21.112;2023-06-22T07:17:04;22.90;99.90
50989;DHT22;37008;52.210;21.112;2023-06-22T07:19:29;23.00;99.90
50989;DHT22;37008;52.210;21.112;2023-06-22T07:21:56;23.20;99.90
50989;DHT22;37008;52.210;21.112;2023-06-22T07:24:23;23.30;99.90
50989;DHT22;37008;52.210;21.112;2023-06-22T07:26:52;23.50;99.90
50989;DHT22;37008;52.210;21.112;2023-06-22T07:29:19;23.50;99.90
50989;DHT22;37008;52.210;21.112;2023-06-22T07:31:46;23.50;99.90
50989;DHT22;37008;52.210;21.112;2023-06-22T07:34:12;23.70;99.90
50989;DHT22;37008;52.210;21.112;2023-06-22T07:36:38;23.90;99.90
50989;DHT22;37008;52.210;21.112;2023-06-22T07:39:07;23.90;99.90
50989;DHT22;37008;52.210;21.112;2023-06-22T07:41:33;23.80;99.90
50989;DHT22;37008;52.210;21.112;2023-06-22T07:43:58;23.80;99.90
50989;DHT22;37008;52.210;21.112;2023-06-22T07:46:24;23.80;99.90
50989;DHT22;37008;52.210;21.112;2023-06-22T07:48:52;23.90;99.90
50989;DHT22;37008;52.210;21.112;2023-06-22T07:51:17;23.90;99.90
50989;DHT22;37008;52.210;21.112;2023-06-22T07:53:44;23.90;99.90
50989;DHT22;37008;52.210;21.112;2023-06-22T07:56:13;23.80;99.90
50989;DHT22;37008;52.210;21.112;2023-06-22T07:58:38;23.80;99.90
50989;DHT22;37008;52.210;21.112;2023-06-22T08:01:04;23.80;99.90
50989;DHT22;37008;52.210;21.112;2023-06-22T08:03:31;23.80;99.90
50989;DHT22;37008;52.210;21.112;2023-06-22T08:05:57;23.90;99.90
50989;DHT22;37008;52.210;21.112;2023-06-22T08:08:23;24.00;99.90
50989;DHT22;37008;52.210;21.112;2023-06-22T08:10:49;24.20;99.90
50989;DHT22;37008;52.210;21.112;2023-06-22T08:13:15;24.20;99.20
50989;DHT22;37008;52.210;21.112;2023-06-22T08:15:40;24.30;97.80
50989;DHT22;37008;52.210;21.112;2023-06-22T08:18:06;24.30;95.60
50989;DHT22;37008;52.210;21.112;2023-06-22T08:20:32;24.30;94.00
50989;DHT22;37008;52.210;21.112;2023-06-22T08:22:58;24.20;93.10
50989;DHT22;37008;52.210;21.112;2023-06-22T08:25:30;24.20;93.00
50989;DHT22;37008;52.210;21.112;2023-06-22T08:27:56;24.20;94.70
50989;DHT22;37008;52.210;21.112;2023-06-22T08:30:22;24.30;93.10
50989;DHT22;37008;52.210;21.112;2023-06-22T08:32:47;24.30;92.60
50989;DHT22;37008;52.210;21.112;2023-06-22T08:35:14;24.40;93.00
50989;DHT22;37008;52.210;21.112;2023-06-22T08:37:40;24.50;90.90
50989;DHT22;37008;52.210;21.112;2023-06-22T08:40:08;24.50;90.10
50989;DHT22;37008;52.210;21.112;2023-06-22T08:42:35;24.60;89.50
50989;DHT22;37008;52.210;21.112;2023-06-22T08:45:01;24.70;89.50
50989;DHT22;37008;52.210;21.112;2023-06-22T08:47:28;24.70;89.00
50989;DHT22;37008;52.210;21.112;2023-06-22T08:49:54;24.80;87.30
50989;DHT22;37008;52.210;21.112;2023-06-22T08:52:20;24.80;84.20
50989;DHT22;37008;52.210;21.112;2023-06-22T08:54:46;24.90;81.60
50989;DHT22;37008;52.210;21.112;2023-06-22T08:57:12;24.90;78.80
50989;DHT22;37008;52.210;21.112;2023-06-22T08:59:38;24.90;76.50
50989;DHT22;37008;52.210;21.112;2023-06-22T09:02:05;24.80;75.50
50989;DHT22;37008;52.210;21.112;2023-06-22T09:04:31;24.90;75.90
50989;DHT22;37008;52.210;21.112;2023-06-22T09:07:00;24.90;74.40
50989;DHT22;37008;52.210;21.112;2023-06-22T09:09:26;24.90;73.20
50989;DHT22;37008;52.210;21.112;2023-06-22T09:11:51;25.00;73.30
50989;DHT22;37008;52.210;21.112;2023-06-22T09:14:17;25.00;72.50
50989;DHT22;37008;52.210;21.112;2023-06-22T09:16:43;25.10;72.90
50989;DHT22;37008;52.210;21.112;2023-06-22T09:19:08;25.10;71.80
50989;DHT22;37008;52.210;21.112;2023-06-22T09:21:34;25.10;71.50
50989;DHT22;37008;52.210;21.112;2023-06-22T09:24:00;25.20;70.30
50989;DHT22;37008;52.210;21.112;2023-06-22T09:26:25;25.20;69.40
50989;DHT22;37008;52.210;21.112;2023-06-22T09:28:51;25.20;68.10
50989;DHT22;37008;52.210;21.112;2023-06-22T09:31:17;25.20;67.30
50989;DHT22;37008;52.210;21.112;2023-06-22T09:33:43;25.20;67.60
50989;DHT22;37008;52.210;21.112;2023-06-22T09:36:09;25.30;67.60
50989;DHT22;37008;52.210;21.112;2023-06-22T09:38:36;25.30;66.10
50989;DHT22;37008;52.210;21.112;2023-06-22T09:41:02;25.50;64.90
50989;DHT22;37008;52.210;21.112;2023-06-22T09:43:32;25.50;62.00
50989;DHT22;37008;52.210;21.112;2023-06-22T09:46:00;25.50;61.30
50989;DHT22;37008;52.210;21.112;2023-06-22T09:48:27;25.60;62.70
50989;DHT22;37008;52.210;21.112;2023-06-22T09:50:54;25.70;61.50
50989;DHT22;37008;52.210;21.112;2023-06-22T09:53:19;25.80;60.20
50989;DHT22;37008;52.210;21.112;2023-06-22T09:55:45;25.90;59.50
50989;DHT22;37008;52.210;21.112;2023-06-22T09:58:10;25.90;59.50
50989;DHT22;37008;52.210;21.112;2023-06-22T10:00:36;25.90;58.30
50989;DHT22;37008;52.210;21.112;2023-06-22T10:03:02;26.00;58.70
50989;DHT22;37008;52.210;21.112;2023-06-22T10:05:27;26.10;58.10
50989;DHT22;37008;52.210;21.112;2023-06-22T10:07:53;26.20;56.40
50989;DHT22;37008;52.210;21.112;2023-06-22T10:10:18;26.10;56.10
50989;DHT22;37008;52.210;21.112;2023-06-22T10:12:54;26.20;56.00
50989;DHT22;37008;52.210;21.112;2023-06-22T10:15:20;26.20;56.30
50989;DHT22;37008;52.210;21.112;2023-06-22T10:17:46;26.20;56.50
50989;DHT22;37008;52.210;21.112;2023-06-22T10:20:12;26.30;56.90
50989;DHT22;37008;52.210;21.112;2023-06-22T10:22:42;26.30;56.20
50989;DHT22;37008;52.210;21.112;2023-06-22T10:25:10;26.30;56.10
50989;DHT22;37008;52.210;21.112;2023-06-22T10:27:35;26.40;54.10
50989;DHT22;37008;52.210;21.112;2023-06-22T10:30:01;26.50;54.40
50989;DHT22;37008;52.210;21.112;2023-06-22T10:32:27;26.50;52.00
50989;DHT22;37008;52.210;21.112;2023-06-22T10:34:55;26.50;52.20
50989;DHT22;37008;52.210;21.112;2023-06-22T10:37:21;26.50;53.50
50989;DHT22;37008;52.210;21.112;2023-06-22T10:39:47;26.50;54.60
50989;DHT22;37008;52.210;21.112;2023-06-22T10:42:13;26.50;55.00
50989;DHT22;37008;52.210;21.112;2023-06-22T10:44:38;26.50;55.20
50989;DHT22;37008;52.210;21.112;2023-06-22T10:47:07;26.60;54.60
50989;DHT22;37008;52.210;21.112;2023-06-22T10:49:33;26.60;54.30
50989;DHT22;37008;52.210;21.112;2023-06-22T10:51:58;26.70;54.50
50989;DHT22;37008;52.210;21.112;2023-06-22T10:54:24;26.80;55.20
50989;DHT22;37008;52.210;21.112;2023-06-22T10:56:50;26.80;54.70
50989;DHT22;37008;52.210;21.112;2023-06-22T10:59:16;26.90;55.30
50989;DHT22;37008;52.210;21.112;2023-06-22T11:01:41;27.00;54.80
50989;DHT22;37008;52.210;21.112;2023-06-22T11:04:07;27.00;54.90
50989;DHT22;37008;52.210;21.112;2023-06-22T11:06:35;27.00;54.80
50989;DHT22;37008;52.210;21.112;2023-06-22T11:09:02;27.00;54.00
50989;DHT22;37008;52.210;21.112;2023-06-22T11:11:29;27.10;52.60
50989;DHT22;37008;52.210;21.112;2023-06-22T11:13:54;27.10;51.20
50989;DHT22;37008;52.210;21.112;2023-06-22T11:16:20;27.20;51.50
50989;DHT22;37008;52.210;21.112;2023-06-22T11:18:45;27.20;52.00
50989;DHT22;37008;52.210;21.112;2023-06-22T11:21:11;27.20;52.30
50989;DHT22;37008;52.210;21.112;2023-06-22T11:23:36;27.20;52.20
50989;DHT22;37008;52.210;21.112;2023-06-22T11:26:02;27.20;51.70
50989;DHT22;37008;52.210;21.112;2023-06-22T11:28:29;27.20;52.00
50989;DHT22;37008;52.210;21.112;2023-06-22T11:30:55;27.30;50.80
50989;DHT22;37008;52.210;21.112;2023-06-22T11:33:22;27.30;50.20
50989;DHT22;37008;52.210;21.112;2023-06-22T11:35:47;27.30;50.60
50989;DHT22;37008;52.210;21.112;2023-06-22T11:38:13;27.30;51.30
50989;DHT22;37008;52.210;21.112;2023-06-22T11:40:38;27.30;51.30
50989;DHT22;37008;52.210;21.112;2023-06-22T11:43:04;27.40;52.10
50989;DHT22;37008;52.210;21.112;2023-06-22T11:45:30;27.40;52.50
50989;DHT22;37008;52.210;21.112;2023-06-22T11:47:55;27.50;53.00
50989;DHT22;37008;52.210;21.112;2023-06-22T11:50:21;27.60;52.00
50989;DHT22;37008;52.210;21.112;2023-06-22T11:52:47;27.70;51.40
50989;DHT22;37008;52.210;21.112;2023-06-22T11:55:13;27.70;50.60
50989;DHT22;37008;52.210;21.112;2023-06-22T11:57:53;27.70;50.40
50989;DHT22;37008;52.210;21.112;2023-06-22T12:00:19;27.80;51.40
50989;DHT22;37008;52.210;21.112;2023-06-22T12:02:46;27.90;50.70
50989;DHT22;37008;52.210;21.112;2023-06-22T12:05:11;28.00;50.90
50989;DHT22;37008;52.210;21.112;2023-06-22T12:07:37;28.10;52.00
50989;DHT22;37008;52.210;21.112;2023-06-22T12:10:03;28.20;51.30
50989;DHT22;37008;52.210;21.112;2023-06-22T12:12:29;28.30;51.50
50989;DHT22;37008;52.210;21.112;2023-06-22T12:14:55;28.30;50.00
50989;DHT22;37008;52.210;21.112;2023-06-22T12:17:20;28.10;49.30
50989;DHT22;37008;52.210;21.112;2023-06-22T12:19:46;28.00;50.40
50989;DHT22;37008;52.210;21.112;2023-06-22T12:22:12;28.10;50.60
50989;DHT22;37008;52.210;21.112;2023-06-22T12:24:37;28.10;50.60
50989;DHT22;37008;52.210;21.112;2023-06-22T12:27:03;28.10;50.30
50989;DHT22;37008;52.210;21.112;2023-06-22T12:29:29;28.20;50.60
50989;DHT22;37008;52.210;21.112;2023-06-22T12:31:55;28.20;51.10
50989;DHT22;37008;52.210;21.112;2023-06-22T12:34:20;28.20;51.20
50989;DHT22;37008;52.210;21.112;2023-06-22T12:36:46;28.20;50.10
50989;DHT22;37008;52.210;21.112;2023-06-22T12:39:14;28.10;49.50
50989;DHT22;37008;52.210;21.112;2023-06-22T12:41:39;28.20;49.30
50989;DHT22;37008;52.210;21.112;2023-06-22T12:44:05;28.10;50.00
50989;DHT22;37008;52.210;21.112;2023-06-22T12:46:30;28.10;50.40
50989;DHT22;37008;52.210;21.112;2023-06-22T12:49:03;28.20;50.10
50989;DHT22;37008;52.210;21.112;2023-06-22T12:51:30;28.10;49.10
50989;DHT22;37008;52.210;21.112;2023-06-22T12:53:55;28.10;48.50
50989;DHT22;37008;52.210;21.112;2023-06-22T12:56:21;28.10;48.60
50989;DHT22;37008;52.210;21.112;2023-06-22T12:58:47;28.10;49.10
50989;DHT22;37008;52.210;21.112;2023-06-22T13:01:13;28.20;48.60
50989;DHT22;37008;52.210;21.112;2023-06-22T13:03:38;28.20;47.90
50989;DHT22;37008;52.210;21.112;2023-06-22T13:06:04;28.20;49.10
50989;DHT22;37008;52.210;21.112;2023-06-22T13:08:30;28.30;49.00
50989;DHT22;37008;52.210;21.112;2023-06-22T13:10:55;28.30;48.20
50989;DHT22;37008;52.210;21.112;2023-06-22T13:13:25;28.30;48.40
50989;DHT22;37008;52.210;21.112;2023-06-22T13:15:53;28.40;48.10
50989;DHT22;37008;52.210;21.112;2023-06-22T13:18:19;28.30;47.10
50989;DHT22;37008;52.210;21.112;2023-06-22T13:20:45;28.30;46.80
50989;DHT22;37008;52.210;21.112;2023-06-22T13:23:11;28.20;47.10
50989;DHT22;37008;52.210;21.112;2023-06-22T13:25:36;28.20;47.80
50989;DHT22;37008;52.210;21.112;2023-06-22T13:28:03;28.30;47.80
50989;DHT22;37008;52.210;21.112;2023-06-22T13:30:29;28.40;47.80
50989;DHT22;37008;52.210;21.112;2023-06-22T13:32:55;28.50;46.90
50989;DHT22;37008;52.210;21.112;2023-06-22T13:35:21;28.50;46.70
50989;DHT22;37008;52.210;21.112;2023-06-22T13:37:47;28.50;46.20
50989;DHT22;37008;52.210;21.112;2023-06-22T13:40:12;28.50;46.10
50989;DHT22;37008;52.210;21.112;2023-06-22T13:42:38;28.60;44.70
50989;DHT22;37008;52.210;21.112;2023-06-22T13:45:04;28.70;44.50
50989;DHT22;37008;52.210;21.112;2023-06-22T13:47:30;28.80;44.40
50989;DHT22;37008;52.210;21.112;2023-06-22T13:49:56;28.80;44.80
50989;DHT22;37008;52.210;21.112;2023-06-22T13:52:23;29.10;44.80
50989;DHT22;37008;52.210;21.112;2023-06-22T13:54:48;29.80;44.90
50989;DHT22;37008;52.210;21.112;2023-06-22T13:57:14;30.50;44.20
50989;DHT22;37008;52.210;21.112;2023-06-22T13:59:40;31.10;43.10
50989;DHT22;37008;52.210;21.112;2023-06-22T14:02:06;31.00;43.50
50989;DHT22;37008;52.210;21.112;2023-06-22T14:04:32;31.10;42.70
50989;DHT22;37008;52.210;21.112;2023-06-22T14:06:57;31.60;43.00
50989;DHT22;37008;52.210;21.112;2023-06-22T14:09:23;32.30;42.10
50989;DHT22;37008;52.210;21.112;2023-06-22T14:11:49;33.00;40.50
50989;DHT22;37008;52.210;21.112;2023-06-22T14:14:14;33.50;39.20
50989;DHT22;37008;52.210;21.112;2023-06-22T14:16:40;33.10;39.50
50989;DHT22;37008;52.210;21.112;2023-06-22T14:19:05;32.90;40.20
50989;DHT22;37008;52.210;21.112;2023-06-22T14:21:31;32.60;40.50
50989;DHT22;37008;52.210;21.112;2023-06-22T14:23:56;31.90;41.00
50989;DHT22;37008;52.210;21.112;2023-06-22T14:26:22;31.30;41.90
50989;DHT22;37008;52.210;21.112;2023-06-22T14:28:48;31.50;42.10
50989;DHT22;37008;52.210;21.112;2023-06-22T14:31:16;31.80;41.50
50989;DHT22;37008;52.210;21.112;2023-06-22T14:33:45;31.60;41.70
50989;DHT22;37008;52.210;21.112;2023-06-22T14:36:11;31.20;42.20
50989;DHT22;37008;52.210;21.112;2023-06-22T14:38:36;30.80;43.60
50989;DHT22;37008;52.210;21.112;2023-06-22T14:41:02;31.20;44.30
50989;DHT22;37008;52.210;21.112;2023-06-22T14:43:28;31.20;43.10
50989;DHT22;37008;52.210;21.112;2023-06-22T14:45:53;30.90;43.30
50989;DHT22;37008;52.210;21.112;2023-06-22T14:48:19;30.50;43.60
50989;DHT22;37008;52.210;21.112;2023-06-22T14:50:45;30.10;43.80
50989;DHT22;37008;52.210;21.112;2023-06-22T14:53:10;30.40;43.90
50989;DHT22;37008;52.210;21.112;2023-06-22T14:55:36;31.00;43.50
50989;DHT22;37008;52.210;21.112;2023-06-22T14:58:01;31.60;42.80
50989;DHT22;37008;52.210;21.112;2023-06-22T15:00:27;32.30;41.20
50989;DHT22;37008;52.210;21.112;2023-06-22T15:02:52;32.90;41.30
50989;DHT22;37008;52.210;21.112;2023-06-22T15:05:18;33.20;41.40
50989;DHT22;37008;52.210;21.112;2023-06-22T15:07:44;33.30;40.10
50989;DHT22;37008;52.210;21.112;2023-06-22T15:10:09;33.20;39.20
50989;DHT22;37008;52.210;21.112;2023-06-22T15:12:36;33.20;38.90
50989;DHT22;37008;52.210;21.112;2023-06-22T15:15:01;33.00;39.10